createdAt,value
2023-04-27T00:00:12.476Z,101568.66
2023-04-27T00:02:40.634Z,101564.61
2023-04-27T00:05:09.157Z,101561.77
2023-04-27T00:07:37.282Z,101556.05
2023-04-27T00:10:05.417Z,101558.07
2023-04-27T00:12:33.459Z,101553.20
2023-04-27T00:15:01.359Z,101554.87
2023-04-27T00:17:29.358Z,101548.82
2023-04-27T00:19:57.328Z,101544.93
2023-04-27T00:22:25.214Z,101555.36
2023-04-27T00:24:53.132Z,101542.93
2023-04-27T00:27:21.118Z,101545.62
2023-04-27T00:29:49.201Z,101544.93
2023-04-27T00:32:17.776Z,101539.70
2023-04-27T00:34:45.710Z,101543.88
2023-04-27T00:37:13.640Z,101545.91
2023-04-27T00:39:41.883Z,101540.38
2023-04-27T00:42:14.531Z,101539.34
2023-04-27T00:44:42.726Z,101546.89
2023-04-27T00:47:11.299Z,101544.17
2023-04-27T00:49:39.456Z,101549.90
2023-04-27T00:52:07.672Z,101555.59
2023-04-27T00:54:35.674Z,101556.96
2023-04-27T00:57:05.353Z,101551.56
2023-04-27T00:59:33.278Z,101551.23
2023-04-27T01:02:01.333Z,101543.00
2023-04-27T01:04:30.206Z,101552.41
2023-04-27T01:06:58.873Z,101551.08
2023-04-27T01:09:27.186Z,101563.86
2023-04-27T01:11:55.581Z,101560.66
2023-04-27T01:14:23.752Z,101560.98
2023-04-27T01:16:53.294Z,101557.48
2023-04-27T01:19:21.223Z,101561.30
2023-04-27T01:21:49.108Z,101563.34
2023-04-27T01:24:17.047Z,101555.06
2023-04-27T01:26:44.952Z,101553.40
2023-04-27T01:29:13.089Z,101550.03
2023-04-27T01:31:41.267Z,101546.86
2023-04-27T01:34:09.334Z,101546.01
2023-04-27T01:36:37.441Z,101542.64
2023-04-27T01:39:05.852Z,101542.45
2023-04-27T01:41:33.864Z,101543.26
2023-04-27T01:44:01.883Z,101535.05
2023-04-27T01:46:29.802Z,101541.92
2023-04-27T01:48:57.837Z,101544.27
2023-04-27T01:51:25.908Z,101551.99
2023-04-27T01:53:53.893Z,101547.80
2023-04-27T01:56:21.869Z,101544.08
2023-04-27T01:58:49.860Z,101546.76
2023-04-27T02:01:17.847Z,101551.30
2023-04-27T02:03:46.054Z,101548.46
2023-04-27T02:06:14.465Z,101542.21
2023-04-27T02:08:42.488Z,101542.21
2023-04-27T02:11:10.581Z,101538.52
2023-04-27T02:13:38.634Z,101545.09
2023-04-27T02:16:06.910Z,101548.46
2023-04-27T02:18:35.055Z,101547.09
2023-04-27T02:21:03.155Z,101546.92
2023-04-27T02:23:31.134Z,101551.96
2023-04-27T02:25:59.069Z,101556.14
2023-04-27T02:28:27.256Z,101555.13
2023-04-27T02:30:55.413Z,101551.44
2023-04-27T02:33:23.352Z,101555.65
2023-04-27T02:35:51.277Z,101560.52
2023-04-27T02:38:19.185Z,101551.96
2023-04-27T02:40:47.151Z,101551.11
2023-04-27T02:43:15.146Z,101546.56
2023-04-27T02:45:43.270Z,101545.22
2023-04-27T02:48:11.266Z,101547.58
2023-04-27T02:50:43.479Z,101560.13
2023-04-27T02:53:12.007Z,101549.57
2023-04-27T02:55:40.533Z,101570.89
2023-04-27T02:58:08.511Z,101552.77
2023-04-27T03:00:36.477Z,101559.31
2023-04-27T03:03:05.251Z,101563.66
2023-04-27T03:05:33.649Z,101560.82
2023-04-27T03:08:01.740Z,101559.97
2023-04-27T03:10:29.685Z,101558.30
2023-04-27T03:12:57.621Z,101562.52
2023-04-27T03:15:25.547Z,101559.45
2023-04-27T03:20:29.042Z,101558.59
2023-04-27T03:22:57.025Z,101554.90
2023-04-27T03:25:25.072Z,101548.55
2023-04-27T03:27:53.051Z,101549.38
2023-04-27T03:30:21.082Z,101561.99
2023-04-27T03:32:49.014Z,101561.47
2023-04-27T03:35:17.259Z,101565.49
2023-04-27T03:37:47.317Z,101569.52
2023-04-27T03:40:15.847Z,101571.22
2023-04-27T03:42:43.805Z,101571.22
2023-04-27T03:45:13.600Z,101572.39
2023-04-27T03:47:41.819Z,101582.43
2023-04-27T03:50:10.230Z,101575.66
2023-04-27T03:52:38.131Z,101584.59
2023-04-27T03:55:07.381Z,101587.43
2023-04-27T03:57:35.512Z,101591.12
2023-04-27T04:00:03.666Z,101598.32
2023-04-27T04:02:31.739Z,101590.60
2023-04-27T04:04:59.791Z,101603.72
2023-04-27T04:07:27.737Z,101597.18
2023-04-27T04:09:55.656Z,101587.56
2023-04-27T04:12:23.621Z,101586.71
2023-04-27T04:14:52.332Z,101587.89
2023-04-27T04:17:20.475Z,101584.23
2023-04-27T04:19:48.452Z,101589.40
2023-04-27T04:22:16.373Z,101587.73
2023-04-27T04:24:44.357Z,101591.06
2023-04-27T04:27:12.318Z,101586.19
2023-04-27T04:29:40.575Z,101588.55
2023-04-27T04:32:08.869Z,101593.09
2023-04-27T04:34:39.998Z,101591.06
2023-04-27T04:37:08.003Z,101589.91
2023-04-27T04:39:36.061Z,101598.12
2023-04-27T04:42:05.436Z,101596.45
2023-04-27T04:44:33.793Z,101601.82
2023-04-27T04:47:02.155Z,101592.77
2023-04-27T04:49:30.096Z,101589.07
2023-04-27T04:51:58.083Z,101595.64
2023-04-27T04:54:26.035Z,101593.91
2023-04-27T04:56:55.036Z,101592.44
2023-04-27T04:59:23.233Z,101595.80
2023-04-27T05:01:51.333Z,101597.47
2023-04-27T05:04:20.070Z,101588.61
2023-04-27T05:06:48.646Z,101593.68
2023-04-27T05:09:16.746Z,101591.29
2023-04-27T05:11:44.702Z,101603.42
2023-04-27T05:14:12.683Z,101600.25
2023-04-27T05:16:40.662Z,101597.90
2023-04-27T05:19:09.753Z,101598.74
2023-04-27T05:21:37.708Z,101592.73
2023-04-27T05:24:05.668Z,101585.83
2023-04-27T05:26:33.674Z,101593.55
2023-04-27T05:29:02.120Z,101597.44
2023-04-27T05:31:30.178Z,101599.43
2023-04-27T05:33:58.181Z,101598.78
2023-04-27T05:36:26.168Z,101608.72
2023-04-27T05:38:54.162Z,101614.60
2023-04-27T05:41:22.120Z,101612.58
2023-04-27T05:43:50.497Z,101606.23
2023-04-27T05:46:18.520Z,101605.91
2023-04-27T05:48:46.537Z,101607.93
2023-04-27T05:51:14.585Z,101601.03
2023-04-27T05:53:42.587Z,101599.86
2023-04-27T05:56:10.696Z,101603.88
2023-04-27T05:58:38.836Z,101606.07
2023-04-27T06:01:07.549Z,101608.85
2023-04-27T06:03:35.695Z,101610.52
2023-04-27T06:06:04.163Z,101615.91
2023-04-27T06:08:33.043Z,101622.78
2023-04-27T06:11:01.049Z,101624.48
2023-04-27T06:13:29.021Z,101628.34
2023-04-27T06:15:57.255Z,101628.04
2023-04-27T06:18:25.228Z,101620.81
2023-04-27T06:20:53.192Z,101626.05
2023-04-27T06:23:21.231Z,101623.73
2023-04-27T06:25:49.184Z,101619.21
2023-04-27T06:28:17.194Z,101629.64
2023-04-27T06:30:45.294Z,101627.13
2023-04-27T06:33:13.393Z,101628.01
2023-04-27T06:35:41.480Z,101617.77
2023-04-27T06:38:09.566Z,101623.20
2023-04-27T06:40:38.609Z,101622.84
2023-04-27T06:43:06.794Z,101618.95
2023-04-27T06:45:34.805Z,101633.93
2023-04-27T06:48:02.956Z,101631.28
2023-04-27T06:50:31.865Z,101628.20
2023-04-27T06:52:59.901Z,101637.16
2023-04-27T06:55:28.003Z,101635.62
2023-04-27T06:57:56.017Z,101638.66
2023-04-27T07:00:24.233Z,101642.04
2023-04-27T07:02:52.829Z,101642.00
2023-04-27T07:05:20.897Z,101641.84
2023-04-27T07:07:48.940Z,101649.75
2023-04-27T07:10:16.927Z,101648.77
2023-04-27T07:12:44.999Z,101645.70
2023-04-27T07:15:12.941Z,101650.08
2023-04-27T07:17:40.877Z,101664.89
2023-04-27T07:20:10.820Z,101657.70
2023-04-27T07:22:38.755Z,101659.89
2023-04-27T07:25:07.688Z,101664.11
2023-04-27T07:27:36.892Z,101660.05
2023-04-27T07:30:05.029Z,101651.45
2023-04-27T07:32:33.509Z,101655.31
2023-04-27T07:35:01.452Z,101650.77
2023-04-27T07:37:30.320Z,101649.59
2023-04-27T07:39:59.053Z,101659.20
2023-04-27T07:42:27.096Z,101662.90
2023-04-27T07:44:55.666Z,101660.54
2023-04-27T07:47:23.730Z,101646.71
2023-04-27T07:49:52.286Z,101648.87
2023-04-27T07:52:20.276Z,101660.34
2023-04-27T07:54:48.327Z,101659.85
2023-04-27T07:57:16.288Z,101655.96
2023-04-27T07:59:44.399Z,101650.73
2023-04-27T08:04:45.927Z,101659.73
2023-04-27T08:07:14.226Z,101656.45
2023-04-27T08:09:42.588Z,101661.62
2023-04-27T08:12:10.514Z,101660.94
2023-04-27T08:14:38.682Z,101649.75
2023-04-27T08:17:07.031Z,101657.17
2023-04-27T08:19:35.688Z,101663.13
2023-04-27T08:22:03.674Z,101662.96
2023-04-27T08:24:31.924Z,101660.25
2023-04-27T08:26:59.972Z,101659.73
2023-04-27T08:29:29.012Z,101660.80
2023-04-27T08:32:00.379Z,101661.49
2023-04-27T08:34:29.043Z,101664.83
2023-04-27T08:36:57.976Z,101662.41
2023-04-27T08:39:26.451Z,101657.37
2023-04-27T08:41:54.755Z,101663.32
2023-04-27T08:44:22.764Z,101655.41
2023-04-27T08:46:52.237Z,101667.27
2023-04-27T08:49:20.682Z,101657.70
2023-04-27T08:51:49.231Z,101661.62
2023-04-27T08:54:17.243Z,101660.58
2023-04-27T08:56:45.215Z,101658.61
2023-04-27T08:59:17.263Z,101653.58
2023-04-27T09:01:49.913Z,101659.17
2023-04-27T09:04:19.161Z,101656.95
2023-04-27T09:06:47.691Z,101664.50
2023-04-27T09:09:25.398Z,101666.52
2023-04-27T09:11:53.518Z,101661.55
2023-04-27T09:14:23.196Z,101651.32
2023-04-27T09:17:01.370Z,101654.46
2023-04-27T09:19:30.192Z,101655.31
2023-04-27T09:22:16.299Z,101648.61
2023-04-27T09:24:53.900Z,101647.27
2023-04-27T09:27:23.114Z,101652.27
2023-04-27T09:29:51.313Z,101646.77
2023-04-27T09:32:20.404Z,101642.00
2023-04-27T09:34:48.377Z,101646.55
2023-04-27T09:37:16.713Z,101633.41
2023-04-27T09:39:44.868Z,101634.02
2023-04-27T09:42:13.945Z,101633.89
2023-04-27T09:44:42.090Z,101635.50
2023-04-27T09:47:10.050Z,101628.27
2023-04-27T09:49:38.306Z,101633.14
2023-04-27T09:52:06.329Z,101631.48
2023-04-27T09:54:35.108Z,101626.90
2023-04-27T09:57:12.827Z,101617.80
2023-04-27T10:00:17.657Z,101620.62
2023-04-27T10:03:10.527Z,101623.30
2023-04-27T10:05:47.671Z,101621.86
2023-04-27T10:08:15.708Z,101621.24
2023-04-27T10:10:45.319Z,101619.61
2023-04-27T10:13:22.729Z,101621.53
2023-04-27T10:15:50.725Z,101619.28
2023-04-27T10:18:29.084Z,101623.17
2023-04-27T10:20:57.317Z,101616.14
2023-04-27T10:23:26.616Z,101615.48
2023-04-27T10:25:55.256Z,101620.62
2023-04-27T10:28:23.246Z,101622.19
2023-04-27T10:30:51.446Z,101611.37
2023-04-27T10:33:20.902Z,101608.39
2023-04-27T10:35:59.590Z,101607.31
2023-04-27T10:38:31.538Z,101618.59
2023-04-27T10:41:00.187Z,101611.98
2023-04-27T10:43:29.136Z,101610.81
2023-04-27T10:45:57.377Z,101608.30
2023-04-27T10:48:25.437Z,101608.23
2023-04-27T10:50:53.858Z,101598.22
2023-04-27T10:53:22.037Z,101600.15
2023-04-27T10:55:50.031Z,101599.10
2023-04-27T10:58:18.109Z,101602.57
2023-04-27T11:00:46.177Z,101601.55
2023-04-27T11:03:15.889Z,101602.34
2023-04-27T11:05:47.574Z,101597.38
2023-04-27T11:08:19.572Z,101598.09
2023-04-27T11:10:50.679Z,101602.05
2023-04-27T11:13:20.492Z,101607.48
2023-04-27T11:15:53.035Z,101596.55
2023-04-27T11:18:21.989Z,101603.48
2023-04-27T11:20:51.422Z,101606.46
2023-04-27T11:23:27.460Z,101601.07
2023-04-27T11:25:55.740Z,101594.23
2023-04-27T11:28:27.409Z,101590.80
2023-04-27T11:30:59.357Z,101585.77
2023-04-27T11:33:29.191Z,101589.00
2023-04-27T11:35:57.859Z,101585.41
2023-04-27T11:38:26.070Z,101588.77
2023-04-27T11:41:02.927Z,101585.87
2023-04-27T11:43:31.062Z,101583.31
2023-04-27T11:46:00.146Z,101588.31
2023-04-27T11:48:28.767Z,101582.20
2023-04-27T11:51:00.483Z,101584.30
2023-04-27T11:53:39.474Z,101585.02
2023-04-27T11:56:12.359Z,101578.90
2023-04-27T11:58:40.996Z,101580.83
2023-04-27T12:01:09.190Z,101580.60
2023-04-27T12:03:38.467Z,101570.46
2023-04-27T12:06:22.066Z,101574.91
2023-04-27T12:08:54.592Z,101577.07
2023-04-27T12:11:23.177Z,101572.55
2023-04-27T12:13:51.170Z,101570.04
2023-04-27T12:16:19.438Z,101577.95
2023-04-27T12:18:47.731Z,101574.62
2023-04-27T12:21:15.727Z,101571.74
2023-04-27T12:23:43.780Z,101568.01
2023-04-27T12:26:14.284Z,101572.49
2023-04-27T12:28:43.209Z,101572.85
2023-04-27T12:31:15.175Z,101568.99
2023-04-27T12:33:44.067Z,101576.48
2023-04-27T12:36:12.122Z,101569.81
2023-04-27T12:38:40.112Z,101562.55
2023-04-27T12:41:08.166Z,101568.86
2023-04-27T12:43:38.769Z,101561.57
2023-04-27T12:46:06.849Z,101551.47
2023-04-27T12:48:35.154Z,101552.77
2023-04-27T12:51:03.329Z,101542.57
2023-04-27T12:53:31.374Z,101549.47
2023-04-27T12:56:02.149Z,101546.43
2023-04-27T12:58:30.204Z,101547.45
2023-04-27T13:00:59.154Z,101554.25
2023-04-27T13:03:27.354Z,101553.10
2023-04-27T13:05:55.564Z,101544.14
2023-04-27T13:08:23.621Z,101545.05
2023-04-27T13:10:51.773Z,101547.45
2023-04-27T13:13:19.829Z,101544.47
2023-04-27T13:15:47.841Z,101537.12
2023-04-27T13:18:16.036Z,101532.47
2023-04-27T13:20:45.449Z,101540.41
2023-04-27T13:23:13.993Z,101534.86
2023-04-27T13:25:42.397Z,101534.63
2023-04-27T13:28:10.468Z,101532.93
2023-04-27T13:30:38.528Z,101526.23
2023-04-27T13:33:21.176Z,101529.79
2023-04-27T13:35:54.638Z,101530.38
2023-04-27T13:38:22.743Z,101521.65
2023-04-27T13:40:50.769Z,101526.16
2023-04-27T13:43:18.949Z,101523.09
2023-04-27T13:45:47.106Z,101520.87
2023-04-27T13:48:15.078Z,101516.94
2023-04-27T13:50:43.214Z,101514.48
2023-04-27T13:53:11.231Z,101522.40
2023-04-27T13:55:39.430Z,101514.13
2023-04-27T13:58:07.547Z,101507.13
2023-04-27T14:00:36.028Z,101508.90
2023-04-27T14:03:05.785Z,101511.91
2023-04-27T14:05:33.966Z,101522.73
2023-04-27T14:08:02.286Z,101514.48
2023-04-27T14:10:30.479Z,101512.00
2023-04-27T14:12:58.674Z,101509.88
2023-04-27T14:15:27.321Z,101508.21
2023-04-27T14:17:55.334Z,101510.53
2023-04-27T14:20:23.391Z,101517.73
2023-04-27T14:22:51.328Z,101520.44
2023-04-27T14:25:19.409Z,101522.53
2023-04-27T14:27:47.537Z,101513.28
2023-04-27T14:30:15.739Z,101503.21
2023-04-27T14:32:43.912Z,101503.99
2023-04-27T14:35:12.296Z,101499.74
2023-04-27T14:37:40.331Z,101500.92
2023-04-27T14:40:09.138Z,101496.63
2023-04-27T14:42:37.281Z,101490.85
2023-04-27T14:45:05.614Z,101489.93
2023-04-27T14:47:33.829Z,101493.98
2023-04-27T14:50:01.848Z,101494.80
2023-04-27T14:52:30.360Z,101495.85
2023-04-27T14:54:58.420Z,101493.98
2023-04-27T14:57:26.381Z,101490.42
2023-04-27T14:59:54.361Z,101488.16
2023-04-27T15:02:22.407Z,101492.48
2023-04-27T15:04:50.528Z,101497.65
2023-04-27T15:07:18.604Z,101493.04
2023-04-27T15:09:46.565Z,101491.27
2023-04-27T15:12:14.605Z,101493.70
2023-04-27T15:14:42.688Z,101495.33
2023-04-27T15:17:10.684Z,101479.90
2023-04-27T15:19:38.718Z,101485.95
2023-04-27T15:22:07.104Z,101477.12
2023-04-27T15:24:35.083Z,101478.72
2023-04-27T15:27:03.053Z,101481.07
2023-04-27T15:29:31.081Z,101481.34
2023-04-27T15:31:59.070Z,101482.87
2023-04-27T15:34:27.066Z,101480.29
2023-04-27T15:36:55.035Z,101489.21
2023-04-27T15:39:23.049Z,101481.59
2023-04-27T15:41:51.050Z,101486.11
2023-04-27T15:44:19.146Z,101486.04
2023-04-27T15:46:47.150Z,101491.34
2023-04-27T15:49:15.444Z,101478.81
2023-04-27T15:51:43.640Z,101480.35
2023-04-27T15:54:11.613Z,101475.71
2023-04-27T15:56:39.663Z,101473.65
2023-04-27T15:59:08.166Z,101467.80
2023-04-27T16:01:36.118Z,101464.92
2023-04-27T16:04:04.501Z,101461.98
2023-04-27T16:06:36.279Z,101460.31
2023-04-27T16:09:10.594Z,101452.07
2023-04-27T16:11:38.908Z,101446.28
2023-04-27T16:14:07.134Z,101447.82
2023-04-27T16:16:35.557Z,101447.69
2023-04-27T16:19:03.690Z,101445.50
2023-04-27T16:21:31.604Z,101439.19
2023-04-27T16:23:59.531Z,101439.94
2023-04-27T16:26:28.288Z,101429.58
2023-04-27T16:28:57.863Z,101429.94
2023-04-27T16:31:26.017Z,101427.81
2023-04-27T16:33:53.979Z,101428.50
2023-04-27T16:36:22.080Z,101423.82
2023-04-27T16:38:49.997Z,101426.27
2023-04-27T16:41:18.255Z,101429.54
2023-04-27T16:43:46.380Z,101433.56
2023-04-27T16:46:15.960Z,101438.86
2023-04-27T16:48:44.109Z,101434.28
2023-04-27T16:51:12.252Z,101431.77
2023-04-27T16:53:40.348Z,101435.88
2023-04-27T16:56:08.819Z,101429.38
2023-04-27T16:58:37.483Z,101439.22
2023-04-27T17:01:06.077Z,101436.70
2023-04-27T17:03:36.321Z,101436.70
2023-04-27T17:06:04.725Z,101437.45
2023-04-27T17:08:32.676Z,101434.97
2023-04-27T17:11:00.625Z,101435.33
2023-04-27T17:13:28.694Z,101432.39
2023-04-27T17:15:56.856Z,101442.26
2023-04-27T17:18:24.862Z,101441.70
2023-04-27T17:20:53.680Z,101439.58
2023-04-27T17:23:21.897Z,101431.67
2023-04-27T17:25:50.035Z,101438.47
2023-04-27T17:28:17.998Z,101441.22
2023-04-27T17:30:46.006Z,101437.29
2023-04-27T17:33:15.952Z,101436.31
2023-04-27T17:35:45.751Z,101441.51
2023-04-27T17:38:13.859Z,101436.02
2023-04-27T17:40:42.099Z,101444.09
2023-04-27T17:43:10.746Z,101440.30
2023-04-27T17:45:38.862Z,101443.93
2023-04-27T17:48:08.033Z,101441.80
2023-04-27T17:50:37.387Z,101439.58
2023-04-27T17:53:05.434Z,101451.74
2023-04-27T17:55:33.820Z,101445.04
2023-04-27T17:58:01.881Z,101443.63
2023-04-27T18:00:30.169Z,101436.93
2023-04-27T18:02:58.337Z,101442.95
2023-04-27T18:05:26.522Z,101437.48
2023-04-27T18:07:55.099Z,101443.96
2023-04-27T18:10:23.213Z,101440.63
2023-04-27T18:12:51.199Z,101438.73
2023-04-27T18:15:19.178Z,101440.20
2023-04-27T18:17:47.277Z,101444.65
2023-04-27T18:20:16.927Z,101443.37
2023-04-27T18:22:45.004Z,101451.88
2023-04-27T18:25:13.194Z,101455.96
2023-04-27T18:27:41.274Z,101464.85
2023-04-27T18:30:12.529Z,101471.49
2023-04-27T18:32:40.569Z,101464.17
2023-04-27T18:35:08.919Z,101471.30
2023-04-27T18:37:36.946Z,101471.10
2023-04-27T18:40:07.220Z,101472.08
2023-04-27T18:42:35.267Z,101473.42
2023-04-27T18:45:03.280Z,101481.46
2023-04-27T18:47:31.248Z,101474.76
2023-04-27T18:49:59.363Z,101472.60
2023-04-27T18:52:27.540Z,101474.40
2023-04-27T18:54:55.551Z,101481.76
2023-04-27T18:57:24.014Z,101479.90
2023-04-27T18:59:52.108Z,101478.23
2023-04-27T19:02:20.080Z,101476.10
2023-04-27T19:04:52.800Z,101474.04
2023-04-27T19:07:21.044Z,101472.38
2023-04-27T19:09:50.214Z,101472.51
2023-04-27T19:12:18.279Z,101470.97
2023-04-27T19:14:46.365Z,101475.52
2023-04-27T19:17:14.568Z,101475.13
2023-04-27T19:19:42.679Z,101479.70
2023-04-27T19:22:10.800Z,101469.53
2023-04-27T19:24:38.980Z,101467.93
2023-04-27T19:27:07.055Z,101471.30
2023-04-27T19:29:38.683Z,101468.91
2023-04-27T19:32:06.711Z,101470.58
2023-04-27T19:34:34.694Z,101473.81
2023-04-27T19:37:02.865Z,101481.46
2023-04-27T19:39:33.001Z,101469.04
2023-04-27T19:42:02.871Z,101475.13
2023-04-27T19:44:30.975Z,101475.38
2023-04-27T19:46:59.005Z,101473.84
2023-04-27T19:49:27.170Z,101469.95
2023-04-27T19:51:55.150Z,101464.10
2023-04-27T19:54:23.133Z,101458.35
2023-04-27T19:56:51.498Z,101464.23
2023-04-27T19:59:19.882Z,101465.90
2023-04-27T20:01:48.069Z,101472.73
2023-04-27T20:04:16.871Z,101469.01
2023-04-27T20:06:45.944Z,101477.64
2023-04-27T20:09:13.928Z,101470.97
2023-04-27T20:11:41.949Z,101469.76
2023-04-27T20:14:09.932Z,101466.88
2023-04-27T20:16:38.053Z,101470.09
2023-04-27T20:19:07.543Z,101466.26
2023-04-27T20:21:35.742Z,101468.65
2023-04-27T20:24:03.893Z,101459.46
2023-04-27T20:26:31.884Z,101458.88
2023-04-27T20:28:59.924Z,101457.89
2023-04-27T20:31:28.133Z,101464.01
2023-04-27T20:33:56.184Z,101462.20
2023-04-27T20:36:24.569Z,101457.89
2023-04-27T20:38:52.608Z,101450.37
2023-04-27T20:41:20.568Z,101453.48
2023-04-27T20:43:48.804Z,101449.98
2023-04-27T20:46:16.856Z,101452.62
2023-04-27T20:48:44.877Z,101444.62
2023-04-27T20:51:13.035Z,101441.97
2023-04-27T20:53:41.550Z,101444.35
2023-04-27T20:56:10.489Z,101446.25
2023-04-27T20:58:38.558Z,101440.76
2023-04-27T21:01:06.894Z,101445.30
2023-04-27T21:03:35.211Z,101441.94
2023-04-27T21:06:03.470Z,101435.36
2023-04-27T21:08:32.163Z,101436.57
2023-04-27T21:11:00.134Z,101429.61
2023-04-27T21:13:28.903Z,101423.56
2023-04-27T21:15:56.984Z,101425.42
2023-04-27T21:18:30.139Z,101423.27
2023-04-27T21:20:58.669Z,101427.22
2023-04-27T21:23:26.734Z,101424.24
2023-04-27T21:25:54.726Z,101420.48
2023-04-27T21:28:23.001Z,101420.88
2023-04-27T21:30:51.247Z,101418.82
2023-04-27T21:33:19.335Z,101425.39
2023-04-27T21:35:47.434Z,101422.91
2023-04-27T21:38:15.488Z,101419.54
2023-04-27T21:40:43.560Z,101410.09
2023-04-27T21:43:11.818Z,101405.58
2023-04-27T21:45:39.804Z,101416.34
2023-04-27T21:48:07.810Z,101425.29
2023-04-27T21:50:35.875Z,101424.31
2023-04-27T21:53:03.919Z,101426.70
2023-04-27T21:55:32.300Z,101424.21
2023-04-27T21:58:00.366Z,101420.35
2023-04-27T22:00:28.375Z,101424.90
2023-04-27T22:02:56.842Z,101424.90
2023-04-27T22:05:25.076Z,101424.77
2023-04-27T22:07:53.378Z,101423.43
2023-04-27T22:10:21.429Z,101422.94
2023-04-27T22:12:49.440Z,101420.78
2023-04-27T22:15:17.514Z,101417.41
2023-04-27T22:17:45.678Z,101414.08
2023-04-27T22:20:15.554Z,101424.21
2023-04-27T22:22:43.531Z,101429.12
2023-04-27T22:25:12.630Z,101424.57
2023-04-27T22:27:45.082Z,101431.11
2023-04-27T22:30:14.293Z,101432.45
2023-04-27T22:32:42.440Z,101434.16
2023-04-27T22:35:24.941Z,101430.42
2023-04-27T22:37:58.401Z,101424.34
2023-04-27T22:40:26.634Z,101430.79
2023-04-27T22:42:57.419Z,101429.58
2023-04-27T22:45:25.505Z,101418.95
2023-04-27T22:47:53.833Z,101413.23
2023-04-27T22:50:22.175Z,101394.72
2023-04-27T22:52:50.210Z,101387.76
2023-04-27T22:55:18.200Z,101396.00
2023-04-27T22:57:46.206Z,101402.11
2023-04-27T23:00:14.488Z,101414.41
2023-04-27T23:02:43.084Z,101407.02
2023-04-27T23:05:12.097Z,101403.32
2023-04-27T23:07:42.320Z,101397.92
2023-04-27T23:10:10.670Z,101398.25
2023-04-27T23:12:40.036Z,101394.10
2023-04-27T23:15:08.826Z,101388.70
2023-04-27T23:17:37.232Z,101390.24
2023-04-27T23:20:24.569Z,101394.30
2023-04-27T23:22:55.881Z,101393.48
2023-04-27T23:25:24.947Z,101391.78
2023-04-27T23:27:53.133Z,101392.47
2023-04-27T23:30:22.704Z,101389.26
2023-04-27T23:32:50.730Z,101393.35
2023-04-27T23:35:18.908Z,101391.52
2023-04-27T23:37:46.958Z,101396.06
2023-04-27T23:40:15.660Z,101382.07
2023-04-27T23:42:43.741Z,101379.91
2023-04-27T23:45:12.207Z,101380.95
2023-04-27T23:47:40.369Z,101378.08
2023-04-27T23:50:08.817Z,101372.36
2023-04-27T23:52:37.034Z,101371.41
2023-04-27T23:55:05.241Z,101363.98
2023-04-27T23:57:33.267Z,101368.40
